sensor_id;sensor_type;location;lat;lon;timestamp;P1;durP1;ratioP1;P2;durP2;ratioP2
23614;SDS011;11985;49.404;7.734;2024-03-07T00:02:20;63.58;;;31.15;;
23614;SDS011;11985;49.404;7.734;2024-03-07T00:07:23;64.70;;;31.80;;
23614;SDS011;11985;49.404;7.734;2024-03-07T00:12:24;68.50;;;32.40;;
23614;SDS011;11985;49.404;7.734;2024-03-07T00:17:27;57.80;;;30.70;;
23614;SDS011;11985;49.404;7.734;2024-03-07T00:22:30;64.05;;;31.15;;
23614;SDS011;11985;49.404;7.734;2024-03-07T00:27:32;71.78;;;32.83;;
23614;SDS011;11985;49.404;7.734;2024-03-07T00:32:33;70.60;;;30.55;;
23614;SDS011;11985;49.404;7.734;2024-03-07T00:37:37;71.18;;;31.65;;
23614;SDS011;11985;49.404;7.734;2024-03-07T00:42:39;62.33;;;31.00;;
23614;SDS011;11985;49.404;7.734;2024-03-07T00:47:40;67.10;;;33.30;;
23614;SDS011;11985;49.404;7.734;2024-03-07T00:52:44;71.93;;;34.35;;
23614;SDS011;11985;49.404;7.734;2024-03-07T00:57:46;65.97;;;32.53;;
23614;SDS011;11985;49.404;7.734;2024-03-07T01:02:47;63.28;;;32.35;;
23614;SDS011;11985;49.404;7.734;2024-03-07T01:07:51;72.55;;;32.95;;
23614;SDS011;11985;49.404;7.734;2024-03-07T01:12:53;67.70;;;32.92;;
23614;SDS011;11985;49.404;7.734;2024-03-07T01:17:57;69.32;;;32.25;;
23614;SDS011;11985;49.404;7.734;2024-03-07T01:23:00;63.00;;;33.50;;
23614;SDS011;11985;49.404;7.734;2024-03-07T01:28:02;68.18;;;33.78;;
23614;SDS011;11985;49.404;7.734;2024-03-07T01:33:04;66.38;;;33.08;;
23614;SDS011;11985;49.404;7.734;2024-03-07T01:38:07;63.42;;;33.70;;
23614;SDS011;11985;49.404;7.734;2024-03-07T01:43:10;67.78;;;32.20;;
23614;SDS011;11985;49.404;7.734;2024-03-07T01:48:12;66.68;;;33.92;;
23614;SDS011;11985;49.404;7.734;2024-03-07T01:53:27;68.07;;;33.75;;
23614;SDS011;11985;49.404;7.734;2024-03-07T01:58:31;72.68;;;35.17;;
23614;SDS011;11985;49.404;7.734;2024-03-07T02:03:33;71.43;;;36.60;;
23614;SDS011;11985;49.404;7.734;2024-03-07T02:08:37;79.45;;;35.58;;
23614;SDS011;11985;49.404;7.734;2024-03-07T02:13:39;74.55;;;35.13;;
23614;SDS011;11985;49.404;7.734;2024-03-07T02:18:41;73.53;;;34.90;;
23614;SDS011;11985;49.404;7.734;2024-03-07T02:23:44;73.78;;;35.78;;
23614;SDS011;11985;49.404;7.734;2024-03-07T02:28:46;67.53;;;33.97;;
23614;SDS011;11985;49.404;7.734;2024-03-07T02:33:47;68.63;;;34.35;;
23614;SDS011;11985;49.404;7.734;2024-03-07T02:38:50;68.05;;;33.63;;
23614;SDS011;11985;49.404;7.734;2024-03-07T02:43:52;70.90;;;34.95;;
23614;SDS011;11985;49.404;7.734;2024-03-07T02:48:54;71.30;;;34.58;;
23614;SDS011;11985;49.404;7.734;2024-03-07T02:53:57;67.75;;;34.25;;
23614;SDS011;11985;49.404;7.734;2024-03-07T02:58:59;77.30;;;36.17;;
23614;SDS011;11985;49.404;7.734;2024-03-07T03:04:01;72.57;;;34.25;;
23614;SDS011;11985;49.404;7.734;2024-03-07T03:09:04;69.88;;;34.55;;
23614;SDS011;11985;49.404;7.734;2024-03-07T03:14:06;72.40;;;34.47;;
23614;SDS011;11985;49.404;7.734;2024-03-07T03:19:08;67.70;;;33.38;;
23614;SDS011;11985;49.404;7.734;2024-03-07T03:24:11;76.63;;;35.58;;
23614;SDS011;11985;49.404;7.734;2024-03-07T03:29:13;69.68;;;33.13;;
23614;SDS011;11985;49.404;7.734;2024-03-07T03:34:16;69.18;;;33.45;;
23614;SDS011;11985;49.404;7.734;2024-03-07T03:39:19;73.28;;;34.08;;
23614;SDS011;11985;49.404;7.734;2024-03-07T03:44:20;74.47;;;34.30;;
23614;SDS011;11985;49.404;7.734;2024-03-07T03:49:22;73.97;;;34.78;;
23614;SDS011;11985;49.404;7.734;2024-03-07T03:54:25;75.72;;;33.40;;
23614;SDS011;11985;49.404;7.734;2024-03-07T03:59:27;75.78;;;34.47;;
23614;SDS011;11985;49.404;7.734;2024-03-07T04:04:29;69.63;;;34.58;;
23614;SDS011;11985;49.404;7.734;2024-03-07T04:09:32;75.63;;;36.90;;
23614;SDS011;11985;49.404;7.734;2024-03-07T04:14:33;78.43;;;34.45;;
23614;SDS011;11985;49.404;7.734;2024-03-07T04:19:35;72.18;;;34.38;;
23614;SDS011;11985;49.404;7.734;2024-03-07T04:24:39;73.47;;;32.92;;
23614;SDS011;11985;49.404;7.734;2024-03-07T04:29:41;70.38;;;33.72;;
23614;SDS011;11985;49.404;7.734;2024-03-07T04:34:43;73.88;;;34.75;;
23614;SDS011;11985;49.404;7.734;2024-03-07T04:39:46;75.93;;;35.03;;
23614;SDS011;11985;49.404;7.734;2024-03-07T04:44:48;76.32;;;35.22;;
23614;SDS011;11985;49.404;7.734;2024-03-07T04:49:49;72.55;;;33.65;;
23614;SDS011;11985;49.404;7.734;2024-03-07T04:54:52;77.30;;;34.22;;
23614;SDS011;11985;49.404;7.734;2024-03-07T04:59:55;76.03;;;35.03;;
23614;SDS011;11985;49.404;7.734;2024-03-07T05:04:58;73.43;;;34.63;;
23614;SDS011;11985;49.404;7.734;2024-03-07T05:10:00;77.70;;;33.05;;
23614;SDS011;11985;49.404;7.734;2024-03-07T05:15:03;78.82;;;35.35;;
23614;SDS011;11985;49.404;7.734;2024-03-07T05:20:06;73.32;;;34.50;;
23614;SDS011;11985;49.404;7.734;2024-03-07T05:25:11;75.87;;;34.97;;
23614;SDS011;11985;49.404;7.734;2024-03-07T05:30:13;71.47;;;33.47;;
23614;SDS011;11985;49.404;7.734;2024-03-07T05:35:15;75.13;;;35.72;;
23614;SDS011;11985;49.404;7.734;2024-03-07T05:40:18;74.20;;;34.35;;
23614;SDS011;11985;49.404;7.734;2024-03-07T05:45:20;71.93;;;34.95;;
23614;SDS011;11985;49.404;7.734;2024-03-07T05:50:23;68.82;;;32.97;;
23614;SDS011;11985;49.404;7.734;2024-03-07T05:55:26;73.97;;;33.30;;
23614;SDS011;11985;49.404;7.734;2024-03-07T06:00:28;73.40;;;32.47;;
23614;SDS011;11985;49.404;7.734;2024-03-07T06:05:29;67.50;;;33.13;;
23614;SDS011;11985;49.404;7.734;2024-03-07T06:10:32;76.50;;;33.63;;
23614;SDS011;11985;49.404;7.734;2024-03-07T06:15:34;74.93;;;33.72;;
23614;SDS011;11985;49.404;7.734;2024-03-07T06:20:37;73.10;;;32.75;;
23614;SDS011;11985;49.404;7.734;2024-03-07T06:25:40;69.57;;;33.45;;
23614;SDS011;11985;49.404;7.734;2024-03-07T06:30:47;71.60;;;34.22;;
23614;SDS011;11985;49.404;7.734;2024-03-07T06:35:49;67.90;;;31.23;;
23614;SDS011;11985;49.404;7.734;2024-03-07T06:40:53;73.65;;;32.60;;
23614;SDS011;11985;49.404;7.734;2024-03-07T06:45:54;74.90;;;32.85;;
23614;SDS011;11985;49.404;7.734;2024-03-07T06:50:56;68.95;;;32.03;;
23614;SDS011;11985;49.404;7.734;2024-03-07T06:55:59;71.93;;;32.58;;
23614;SDS011;11985;49.404;7.734;2024-03-07T07:01:01;70.40;;;32.35;;
23614;SDS011;11985;49.404;7.734;2024-03-07T07:06:07;67.57;;;30.10;;
23614;SDS011;11985;49.404;7.734;2024-03-07T07:11:10;69.95;;;30.15;;
23614;SDS011;11985;49.404;7.734;2024-03-07T07:16:12;69.40;;;30.23;;
23614;SDS011;11985;49.404;7.734;2024-03-07T07:21:13;62.88;;;28.05;;
23614;SDS011;11985;49.404;7.734;2024-03-07T07:26:17;65.47;;;28.35;;
23614;SDS011;11985;49.404;7.734;2024-03-07T07:31:19;68.85;;;29.73;;
23614;SDS011;11985;49.404;7.734;2024-03-07T07:36:20;61.25;;;28.02;;
23614;SDS011;11985;49.404;7.734;2024-03-07T07:41:24;66.70;;;28.38;;
23614;SDS011;11985;49.404;7.734;2024-03-07T07:46:25;59.92;;;27.80;;
23614;SDS011;11985;49.404;7.734;2024-03-07T07:51:27;56.40;;;26.75;;
23614;SDS011;11985;49.404;7.734;2024-03-07T07:56:30;55.40;;;26.00;;
23614;SDS011;11985;49.404;7.734;2024-03-07T08:01:32;56.45;;;26.13;;
23614;SDS011;11985;49.404;7.734;2024-03-07T08:06:35;56.35;;;25.60;;
23614;SDS011;11985;49.404;7.734;2024-03-07T08:11:38;51.42;;;25.35;;
23614;SDS011;11985;49.404;7.734;2024-03-07T08:16:43;50.92;;;25.15;;
23614;SDS011;11985;49.404;7.734;2024-03-07T08:21:52;53.47;;;24.08;;
23614;SDS011;11985;49.404;7.734;2024-03-07T08:26:55;49.22;;;24.35;;
23614;SDS011;11985;49.404;7.734;2024-03-07T08:31:57;53.60;;;25.10;;
23614;SDS011;11985;49.404;7.734;2024-03-07T08:36:59;51.50;;;24.20;;
23614;SDS011;11985;49.404;7.734;2024-03-07T08:42:03;55.40;;;25.85;;
23614;SDS011;11985;49.404;7.734;2024-03-07T08:47:05;52.40;;;25.83;;
23614;SDS011;11985;49.404;7.734;2024-03-07T08:52:07;46.58;;;23.25;;
23614;SDS011;11985;49.404;7.734;2024-03-07T08:57:10;41.08;;;20.65;;
23614;SDS011;11985;49.404;7.734;2024-03-07T09:02:14;39.80;;;20.17;;
23614;SDS011;11985;49.404;7.734;2024-03-07T09:07:16;43.28;;;17.73;;
23614;SDS011;11985;49.404;7.734;2024-03-07T09:12:19;33.03;;;18.02;;
23614;SDS011;11985;49.404;7.734;2024-03-07T09:17:21;33.88;;;17.80;;
23614;SDS011;11985;49.404;7.734;2024-03-07T09:22:22;30.90;;;16.35;;
23614;SDS011;11985;49.404;7.734;2024-03-07T09:27:25;33.78;;;17.17;;
23614;SDS011;11985;49.404;7.734;2024-03-07T09:32:27;27.35;;;14.57;;
23614;SDS011;11985;49.404;7.734;2024-03-07T09:37:33;32.42;;;14.98;;
23614;SDS011;11985;49.404;7.734;2024-03-07T09:42:36;25.90;;;13.40;;
23614;SDS011;11985;49.404;7.734;2024-03-07T09:47:44;34.15;;;13.43;;
23614;SDS011;11985;49.404;7.734;2024-03-07T09:52:48;25.17;;;12.68;;
23614;SDS011;11985;49.404;7.734;2024-03-07T09:57:51;26.73;;;12.98;;
23614;SDS011;11985;49.404;7.734;2024-03-07T10:02:56;25.50;;;13.90;;
23614;SDS011;11985;49.404;7.734;2024-03-07T10:07:59;42.47;;;16.05;;
23614;SDS011;11985;49.404;7.734;2024-03-07T10:13:03;22.45;;;12.65;;
23614;SDS011;11985;49.404;7.734;2024-03-07T10:18:06;28.23;;;13.65;;
23614;SDS011;11985;49.404;7.734;2024-03-07T10:23:09;22.87;;;13.23;;
23614;SDS011;11985;49.404;7.734;2024-03-07T10:28:12;21.58;;;12.48;;
23614;SDS011;11985;49.404;7.734;2024-03-07T10:33:14;25.42;;;13.13;;
23614;SDS011;11985;49.404;7.734;2024-03-07T10:38:16;25.80;;;12.88;;
23614;SDS011;11985;49.404;7.734;2024-03-07T10:43:20;22.35;;;11.98;;
23614;SDS011;11985;49.404;7.734;2024-03-07T10:48:24;22.73;;;12.40;;
23614;SDS011;11985;49.404;7.734;2024-03-07T10:53:31;21.77;;;12.25;;
23614;SDS011;11985;49.404;7.734;2024-03-07T10:58:37;24.60;;;13.35;;
23614;SDS011;11985;49.404;7.734;2024-03-07T11:03:50;21.90;;;13.32;;
23614;SDS011;11985;49.404;7.734;2024-03-07T11:08:57;23.13;;;12.88;;
23614;SDS011;11985;49.404;7.734;2024-03-07T11:14:00;27.33;;;14.23;;
23614;SDS011;11985;49.404;7.734;2024-03-07T11:19:19;31.85;;;14.75;;
23614;SDS011;11985;49.404;7.734;2024-03-07T11:24:27;28.15;;;15.80;;
23614;SDS011;11985;49.404;7.734;2024-03-07T11:29:42;28.08;;;14.68;;
23614;SDS011;11985;49.404;7.734;2024-03-07T11:34:48;26.50;;;14.88;;
23614;SDS011;11985;49.404;7.734;2024-03-07T11:39:50;25.85;;;13.75;;
23614;SDS011;11985;49.404;7.734;2024-03-07T11:44:57;25.63;;;14.82;;
23614;SDS011;11985;49.404;7.734;2024-03-07T11:49:59;28.70;;;15.03;;
23614;SDS011;11985;49.404;7.734;2024-03-07T11:55:02;23.95;;;14.20;;
23614;SDS011;11985;49.404;7.734;2024-03-07T12:00:06;29.30;;;15.23;;
23614;SDS011;11985;49.404;7.734;2024-03-07T12:05:14;29.17;;;14.55;;
23614;SDS011;11985;49.404;7.734;2024-03-07T12:10:16;27.50;;;14.63;;
23614;SDS011;11985;49.404;7.734;2024-03-07T12:15:26;26.02;;;13.95;;
23614;SDS011;11985;49.404;7.734;2024-03-07T12:20:28;26.98;;;12.60;;
23614;SDS011;11985;49.404;7.734;2024-03-07T12:25:33;25.08;;;14.30;;
23614;SDS011;11985;49.404;7.734;2024-03-07T12:30:46;26.33;;;14.57;;
23614;SDS011;11985;49.404;7.734;2024-03-07T12:35:51;27.05;;;15.63;;
23614;SDS011;11985;49.404;7.734;2024-03-07T12:41:01;26.20;;;15.18;;
23614;SDS011;11985;49.404;7.734;2024-03-07T12:46:07;25.10;;;14.68;;
23614;SDS011;11985;49.404;7.734;2024-03-07T12:51:09;27.88;;;15.43;;
23614;SDS011;11985;49.404;7.734;2024-03-07T12:56:10;27.95;;;14.18;;
23614;SDS011;11985;49.404;7.734;2024-03-07T13:01:17;28.25;;;14.07;;
23614;SDS011;11985;49.404;7.734;2024-03-07T13:06:20;24.97;;;14.37;;
23614;SDS011;11985;49.404;7.734;2024-03-07T13:11:25;27.70;;;14.55;;
23614;SDS011;11985;49.404;7.734;2024-03-07T13:16:31;28.02;;;16.15;;
23614;SDS011;11985;49.404;7.734;2024-03-07T13:21:35;30.80;;;16.48;;
23614;SDS011;11985;49.404;7.734;2024-03-07T13:26:37;30.83;;;15.55;;
23614;SDS011;11985;49.404;7.734;2024-03-07T13:31:40;34.35;;;16.73;;
23614;SDS011;11985;49.404;7.734;2024-03-07T13:36:44;25.98;;;15.57;;
23614;SDS011;11985;49.404;7.734;2024-03-07T13:41:46;30.20;;;16.35;;
23614;SDS011;11985;49.404;7.734;2024-03-07T13:46:49;32.00;;;16.38;;
23614;SDS011;11985;49.404;7.734;2024-03-07T13:51:52;29.95;;;15.70;;
23614;SDS011;11985;49.404;7.734;2024-03-07T13:57:15;29.35;;;16.20;;
23614;SDS011;11985;49.404;7.734;2024-03-07T14:02:37;28.75;;;17.10;;
23614;SDS011;11985;49.404;7.734;2024-03-07T14:08:01;31.25;;;16.13;;
23614;SDS011;11985;49.404;7.734;2024-03-07T14:13:28;31.15;;;16.35;;
23614;SDS011;11985;49.404;7.734;2024-03-07T14:24:25;33.50;;;16.67;;
23614;SDS011;11985;49.404;7.734;2024-03-07T14:29:41;35.00;;;15.57;;
23614;SDS011;11985;49.404;7.734;2024-03-07T14:34:47;25.88;;;14.45;;
23614;SDS011;11985;49.404;7.734;2024-03-07T14:40:04;27.27;;;13.95;;
23614;SDS011;11985;49.404;7.734;2024-03-07T14:45:11;29.55;;;16.70;;
23614;SDS011;11985;49.404;7.734;2024-03-07T14:50:16;34.42;;;17.15;;
23614;SDS011;11985;49.404;7.734;2024-03-07T14:55:21;31.73;;;16.95;;
23614;SDS011;11985;49.404;7.734;2024-03-07T15:00:24;33.47;;;17.23;;
23614;SDS011;11985;49.404;7.734;2024-03-07T15:05:27;32.95;;;16.20;;
23614;SDS011;11985;49.404;7.734;2024-03-07T15:10:32;31.90;;;16.13;;
23614;SDS011;11985;49.404;7.734;2024-03-07T15:15:36;32.15;;;15.68;;
23614;SDS011;11985;49.404;7.734;2024-03-07T15:20:37;27.65;;;14.63;;
23614;SDS011;11985;49.404;7.734;2024-03-07T15:25:40;27.88;;;14.90;;
23614;SDS011;11985;49.404;7.734;2024-03-07T15:30:42;29.10;;;16.88;;
23614;SDS011;11985;49.404;7.734;2024-03-07T15:35:43;26.58;;;15.55;;
23614;SDS011;11985;49.404;7.734;2024-03-07T15:40:47;28.98;;;16.75;;
23614;SDS011;11985;49.404;7.734;2024-03-07T15:45:50;32.00;;;15.80;;
23614;SDS011;11985;49.404;7.734;2024-03-07T15:50:52;29.05;;;16.35;;
23614;SDS011;11985;49.404;7.734;2024-03-07T15:55:55;33.70;;;17.00;;
23614;SDS011;11985;49.404;7.734;2024-03-07T16:00:57;36.05;;;18.50;;
23614;SDS011;11985;49.404;7.734;2024-03-07T16:06:00;31.23;;;17.00;;
23614;SDS011;11985;49.404;7.734;2024-03-07T16:11:03;25.77;;;15.60;;
23614;SDS011;11985;49.404;7.734;2024-03-07T16:16:07;30.27;;;16.25;;
23614;SDS011;11985;49.404;7.734;2024-03-07T16:21:09;27.08;;;14.90;;
23614;SDS011;11985;49.404;7.734;2024-03-07T16:26:12;25.33;;;15.27;;
23614;SDS011;11985;49.404;7.734;2024-03-07T16:31:16;25.65;;;13.95;;
23614;SDS011;11985;49.404;7.734;2024-03-07T16:36:18;24.60;;;14.63;;
23614;SDS011;11985;49.404;7.734;2024-03-07T16:41:21;26.50;;;14.25;;
23614;SDS011;11985;49.404;7.734;2024-03-07T16:46:24;24.85;;;13.38;;
23614;SDS011;11985;49.404;7.734;2024-03-07T16:51:26;21.38;;;12.85;;
23614;SDS011;11985;49.404;7.734;2024-03-07T16:56:29;25.70;;;14.35;;
23614;SDS011;11985;49.404;7.734;2024-03-07T17:01:36;25.73;;;14.07;;
23614;SDS011;11985;49.404;7.734;2024-03-07T17:06:44;21.80;;;13.43;;
23614;SDS011;11985;49.404;7.734;2024-03-07T17:11:47;26.13;;;14.52;;
23614;SDS011;11985;49.404;7.734;2024-03-07T17:16:48;24.33;;;13.25;;
23614;SDS011;11985;49.404;7.734;2024-03-07T17:21:50;26.77;;;14.95;;
23614;SDS011;11985;49.404;7.734;2024-03-07T17:26:54;28.75;;;14.63;;
23614;SDS011;11985;49.404;7.734;2024-03-07T17:31:56;28.58;;;14.40;;
23614;SDS011;11985;49.404;7.734;2024-03-07T17:36:59;26.33;;;14.57;;
23614;SDS011;11985;49.404;7.734;2024-03-07T17:42:02;29.58;;;13.95;;
23614;SDS011;11985;49.404;7.734;2024-03-07T17:47:11;31.15;;;16.80;;
23614;SDS011;11985;49.404;7.734;2024-03-07T17:52:12;25.38;;;13.93;;
23614;SDS011;11985;49.404;7.734;2024-03-07T17:57:15;27.65;;;13.82;;
23614;SDS011;11985;49.404;7.734;2024-03-07T18:02:18;28.13;;;14.75;;
23614;SDS011;11985;49.404;7.734;2024-03-07T18:07:20;29.80;;;15.00;;
23614;SDS011;11985;49.404;7.734;2024-03-07T18:12:24;27.33;;;15.05;;
23614;SDS011;11985;49.404;7.734;2024-03-07T18:17:26;29.33;;;15.20;;
23614;SDS011;11985;49.404;7.734;2024-03-07T18:22:28;32.08;;;16.02;;
23614;SDS011;11985;49.404;7.734;2024-03-07T18:27:34;25.33;;;13.88;;
23614;SDS011;11985;49.404;7.734;2024-03-07T18:32:35;26.48;;;14.02;;
23614;SDS011;11985;49.404;7.734;2024-03-07T18:37:37;32.25;;;16.15;;
23614;SDS011;11985;49.404;7.734;2024-03-07T18:42:43;29.25;;;15.52;;
23614;SDS011;11985;49.404;7.734;2024-03-07T18:47:45;33.50;;;15.82;;
23614;SDS011;11985;49.404;7.734;2024-03-07T18:52:52;27.00;;;15.38;;
23614;SDS011;11985;49.404;7.734;2024-03-07T18:57:58;34.05;;;16.55;;
23614;SDS011;11985;49.404;7.734;2024-03-07T19:03:01;31.33;;;15.40;;
23614;SDS011;11985;49.404;7.734;2024-03-07T19:08:05;30.30;;;16.35;;
23614;SDS011;11985;49.404;7.734;2024-03-07T19:13:17;26.95;;;15.85;;
23614;SDS011;11985;49.404;7.734;2024-03-07T19:18:19;30.42;;;16.00;;
23614;SDS011;11985;49.404;7.734;2024-03-07T19:23:22;32.15;;;16.17;;
23614;SDS011;11985;49.404;7.734;2024-03-07T19:28:25;33.13;;;17.40;;
23614;SDS011;11985;49.404;7.734;2024-03-07T19:33:28;33.10;;;15.83;;
23614;SDS011;11985;49.404;7.734;2024-03-07T19:38:31;28.92;;;15.45;;
23614;SDS011;11985;49.404;7.734;2024-03-07T19:43:33;31.67;;;16.60;;
23614;SDS011;11985;49.404;7.734;2024-03-07T19:48:36;32.60;;;17.58;;
23614;SDS011;11985;49.404;7.734;2024-03-07T19:53:37;32.92;;;15.73;;
23614;SDS011;11985;49.404;7.734;2024-03-07T19:58:41;29.48;;;14.48;;
23614;SDS011;11985;49.404;7.734;2024-03-07T20:03:44;31.50;;;14.63;;
23614;SDS011;11985;49.404;7.734;2024-03-07T20:08:46;28.67;;;13.38;;
23614;SDS011;11985;49.404;7.734;2024-03-07T20:13:49;31.35;;;15.20;;
23614;SDS011;11985;49.404;7.734;2024-03-07T20:18:51;28.95;;;14.88;;
23614;SDS011;11985;49.404;7.734;2024-03-07T20:23:53;43.58;;;22.08;;
23614;SDS011;11985;49.404;7.734;2024-03-07T20:28:59;23.92;;;13.45;;
23614;SDS011;11985;49.404;7.734;2024-03-07T20:34:02;27.88;;;13.70;;
23614;SDS011;11985;49.404;7.734;2024-03-07T20:39:04;23.65;;;13.27;;
23614;SDS011;11985;49.404;7.734;2024-03-07T20:49:12;23.35;;;13.90;;
23614;SDS011;11985;49.404;7.734;2024-03-07T20:54:16;26.30;;;13.68;;
23614;SDS011;11985;49.404;7.734;2024-03-07T20:59:21;28.73;;;14.10;;
23614;SDS011;11985;49.404;7.734;2024-03-07T21:04:23;26.63;;;13.15;;
23614;SDS011;11985;49.404;7.734;2024-03-07T21:09:24;28.05;;;14.52;;
23614;SDS011;11985;49.404;7.734;2024-03-07T21:19:35;24.58;;;13.23;;
23614;SDS011;11985;49.404;7.734;2024-03-07T21:24:39;32.80;;;16.77;;
23614;SDS011;11985;49.404;7.734;2024-03-07T21:29:42;24.35;;;12.70;;
23614;SDS011;11985;49.404;7.734;2024-03-07T21:34:43;24.77;;;13.02;;
23614;SDS011;11985;49.404;7.734;2024-03-07T21:39:45;24.65;;;13.07;;
23614;SDS011;11985;49.404;7.734;2024-03-07T21:44:50;27.77;;;14.50;;
23614;SDS011;11985;49.404;7.734;2024-03-07T21:49:51;24.83;;;13.07;;
23614;SDS011;11985;49.404;7.734;2024-03-07T21:54:55;25.13;;;13.02;;
23614;SDS011;11985;49.404;7.734;2024-03-07T21:59:59;25.23;;;13.25;;
23614;SDS011;11985;49.404;7.734;2024-03-07T22:05:01;26.33;;;13.32;;
23614;SDS011;11985;49.404;7.734;2024-03-07T22:10:03;25.90;;;13.38;;
23614;SDS011;11985;49.404;7.734;2024-03-07T22:15:07;24.85;;;12.93;;
23614;SDS011;11985;49.404;7.734;2024-03-07T22:20:11;28.13;;;14.05;;
23614;SDS011;11985;49.404;7.734;2024-03-07T22:25:14;32.55;;;13.50;;
23614;SDS011;11985;49.404;7.734;2024-03-07T22:30:17;27.38;;;14.40;;
23614;SDS011;11985;49.404;7.734;2024-03-07T22:35:21;29.85;;;13.60;;
23614;SDS011;11985;49.404;7.734;2024-03-07T22:40:22;23.40;;;12.60;;
23614;SDS011;11985;49.404;7.734;2024-03-07T22:45:28;25.95;;;14.23;;
23614;SDS011;11985;49.404;7.734;2024-03-07T22:50:30;26.75;;;13.25;;
23614;SDS011;11985;49.404;7.734;2024-03-07T22:55:32;34.00;;;15.35;;
23614;SDS011;11985;49.404;7.734;2024-03-07T23:00:37;29.30;;;14.30;;
23614;SDS011;11985;49.404;7.734;2024-03-07T23:05:44;28.27;;;14.05;;
23614;SDS011;11985;49.404;7.734;2024-03-07T23:10:45;31.48;;;14.35;;
23614;SDS011;11985;49.404;7.734;2024-03-07T23:15:50;29.33;;;14.60;;
23614;SDS011;11985;49.404;7.734;2024-03-07T23:20:53;28.60;;;14.43;;
23614;SDS011;11985;49.404;7.734;2024-03-07T23:25:56;29.77;;;14.07;;
23614;SDS011;11985;49.404;7.734;2024-03-07T23:30:59;32.08;;;15.02;;
23614;SDS011;11985;49.404;7.734;2024-03-07T23:36:01;32.47;;;15.48;;
23614;SDS011;11985;49.404;7.734;2024-03-07T23:41:03;31.65;;;15.57;;
23614;SDS011;11985;49.404;7.734;2024-03-07T23:46:06;32.58;;;16.42;;
23614;SDS011;11985;49.404;7.734;2024-03-07T23:51:08;32.40;;;15.80;;
23614;SDS011;11985;49.404;7.734;2024-03-07T23:56:11;34.22;;;15.55;;
